sensor_id;sensor_type;location;lat;lon;timestamp;noise_LAeq;noise_LA_min;noise_LA_max;noise_LA01;noise_LA95
63692;Laerm;49838;51.798;10.954;2024-01-30T00:00:37;30.43;28.27;47.18;;
63692;Laerm;49838;51.798;10.954;2024-01-30T00:03:04;32.85;28.37;42.19;;
63692;Laerm;49838;51.798;10.954;2024-01-30T00:05:32;31.29;28.27;47.92;;
63692;Laerm;49838;51.798;10.954;2024-01-30T00:08:00;31.47;28.58;48.60;;
63692;Laerm;49838;51.798;10.954;2024-01-30T00:10:28;34.70;28.45;55.22;;
63692;Laerm;49838;51.798;10.954;2024-01-30T00:12:55;37.74;27.91;56.95;;
63692;Laerm;49838;51.798;10.954;2024-01-30T00:15:22;29.85;27.90;43.93;;
63692;Laerm;49838;51.798;10.954;2024-01-30T00:17:50;36.20;28.63;47.30;;
63692;Laerm;49838;51.798;10.954;2024-01-30T00:20:18;34.53;28.28;51.22;;
63692;Laerm;49838;51.798;10.954;2024-01-30T00:22:45;42.56;28.56;58.32;;
63692;Laerm;49838;51.798;10.954;2024-01-30T00:25:14;37.55;28.93;54.98;;
63692;Laerm;49838;51.798;10.954;2024-01-30T00:27:41;35.98;28.51;49.25;;
63692;Laerm;49838;51.798;10.954;2024-01-30T00:30:09;52.89;29.57;72.81;;
63692;Laerm;49838;51.798;10.954;2024-01-30T00:32:37;35.69;29.05;47.94;;
63692;Laerm;49838;51.798;10.954;2024-01-30T00:35:05;32.57;29.40;41.07;;
63692;Laerm;49838;51.798;10.954;2024-01-30T00:37:32;35.12;28.80;47.17;;
63692;Laerm;49838;51.798;10.954;2024-01-30T00:39:59;34.63;30.15;43.62;;
63692;Laerm;49838;51.798;10.954;2024-01-30T00:42:28;41.15;32.65;52.35;;
63692;Laerm;49838;51.798;10.954;2024-01-30T00:44:55;34.71;29.18;42.36;;
63692;Laerm;49838;51.798;10.954;2024-01-30T00:47:22;32.66;28.28;44.73;;
63692;Laerm;49838;51.798;10.954;2024-01-30T00:49:50;30.47;28.03;41.40;;
63692;Laerm;49838;51.798;10.954;2024-01-30T00:52:17;33.01;28.78;41.99;;
63692;Laerm;49838;51.798;10.954;2024-01-30T00:54:44;42.10;31.50;52.91;;
63692;Laerm;49838;51.798;10.954;2024-01-30T00:57:11;33.43;28.74;41.25;;
63692;Laerm;49838;51.798;10.954;2024-01-30T00:59:40;31.40;28.15;42.60;;
63692;Laerm;49838;51.798;10.954;2024-01-30T01:02:07;30.67;28.41;36.99;;
63692;Laerm;49838;51.798;10.954;2024-01-30T01:04:35;30.20;27.61;33.41;;
63692;Laerm;49838;51.798;10.954;2024-01-30T01:07:02;33.17;28.61;43.63;;
63692;Laerm;49838;51.798;10.954;2024-01-30T01:09:29;38.14;30.16;57.75;;
63692;Laerm;49838;51.798;10.954;2024-01-30T01:11:56;34.07;29.15;45.08;;
63692;Laerm;49838;51.798;10.954;2024-01-30T01:14:24;32.78;29.38;43.52;;
63692;Laerm;49838;51.798;10.954;2024-01-30T01:16:53;32.82;28.59;44.63;;
63692;Laerm;49838;51.798;10.954;2024-01-30T01:19:20;31.68;28.59;41.66;;
63692;Laerm;49838;51.798;10.954;2024-01-30T01:21:47;30.77;27.98;38.02;;
63692;Laerm;49838;51.798;10.954;2024-01-30T01:24:14;31.69;28.23;44.01;;
63692;Laerm;49838;51.798;10.954;2024-01-30T01:26:42;31.39;28.15;36.25;;
63692;Laerm;49838;51.798;10.954;2024-01-30T01:29:09;32.37;29.04;41.03;;
63692;Laerm;49838;51.798;10.954;2024-01-30T01:31:38;30.70;27.59;42.26;;
63692;Laerm;49838;51.798;10.954;2024-01-30T01:34:11;55.24;28.15;74.22;;
63692;Laerm;49838;51.798;10.954;2024-01-30T01:36:39;31.28;28.53;39.08;;
63692;Laerm;49838;51.798;10.954;2024-01-30T01:39:06;54.56;28.18;74.94;;
63692;Laerm;49838;51.798;10.954;2024-01-30T01:41:34;31.42;28.51;40.69;;
63692;Laerm;49838;51.798;10.954;2024-01-30T01:44:01;32.09;28.39;44.50;;
63692;Laerm;49838;51.798;10.954;2024-01-30T01:46:31;30.05;27.89;35.79;;
63692;Laerm;49838;51.798;10.954;2024-01-30T01:49:00;30.74;28.16;40.57;;
63692;Laerm;49838;51.798;10.954;2024-01-30T01:51:30;33.87;29.43;49.61;;
63692;Laerm;49838;51.798;10.954;2024-01-30T01:53:59;33.57;29.33;49.53;;
63692;Laerm;49838;51.798;10.954;2024-01-30T01:56:29;39.26;27.63;59.55;;
63692;Laerm;49838;51.798;10.954;2024-01-30T01:58:59;40.05;29.58;55.79;;
63692;Laerm;49838;51.798;10.954;2024-01-30T02:01:27;35.71;28.89;51.69;;
63692;Laerm;49838;51.798;10.954;2024-01-30T02:03:55;38.83;29.58;62.83;;
63692;Laerm;49838;51.798;10.954;2024-01-30T02:06:22;35.76;29.94;57.05;;
63692;Laerm;49838;51.798;10.954;2024-01-30T02:08:51;35.92;28.90;57.62;;
63692;Laerm;49838;51.798;10.954;2024-01-30T02:11:20;38.41;31.66;60.98;;
63692;Laerm;49838;51.798;10.954;2024-01-30T02:13:47;41.14;29.77;60.40;;
63692;Laerm;49838;51.798;10.954;2024-01-30T02:16:14;40.86;30.25;59.77;;
63692;Laerm;49838;51.798;10.954;2024-01-30T02:18:43;39.00;31.91;52.47;;
63692;Laerm;49838;51.798;10.954;2024-01-30T02:21:15;39.01;31.16;54.89;;
63692;Laerm;49838;51.798;10.954;2024-01-30T02:23:43;36.93;30.83;50.05;;
63692;Laerm;49838;51.798;10.954;2024-01-30T02:26:11;36.25;30.60;47.40;;
63692;Laerm;49838;51.798;10.954;2024-01-30T02:28:39;43.39;31.57;59.48;;
63692;Laerm;49838;51.798;10.954;2024-01-30T02:31:06;38.27;30.40;56.76;;
63692;Laerm;49838;51.798;10.954;2024-01-30T02:33:33;36.81;30.24;48.76;;
63692;Laerm;49838;51.798;10.954;2024-01-30T02:36:00;33.84;29.07;43.34;;
63692;Laerm;49838;51.798;10.954;2024-01-30T02:38:32;31.92;28.85;40.51;;
63692;Laerm;49838;51.798;10.954;2024-01-30T02:40:59;30.51;28.45;43.41;;
63692;Laerm;49838;51.798;10.954;2024-01-30T02:43:26;31.85;29.15;37.03;;
63692;Laerm;49838;51.798;10.954;2024-01-30T02:45:53;32.25;29.36;40.66;;
63692;Laerm;49838;51.798;10.954;2024-01-30T02:48:21;32.33;29.01;46.11;;
63692;Laerm;49838;51.798;10.954;2024-01-30T02:50:48;32.05;29.15;42.66;;
63692;Laerm;49838;51.798;10.954;2024-01-30T02:53:15;54.63;30.54;75.47;;
63692;Laerm;49838;51.798;10.954;2024-01-30T02:55:44;35.51;30.45;50.59;;
63692;Laerm;49838;51.798;10.954;2024-01-30T02:58:11;34.44;29.35;51.81;;
63692;Laerm;49838;51.798;10.954;2024-01-30T03:00:38;36.72;29.04;57.10;;
63692;Laerm;49838;51.798;10.954;2024-01-30T03:03:05;34.69;30.84;41.94;;
63692;Laerm;49838;51.798;10.954;2024-01-30T03:05:33;35.18;29.73;42.44;;
63692;Laerm;49838;51.798;10.954;2024-01-30T03:08:00;43.98;30.82;72.47;;
63692;Laerm;49838;51.798;10.954;2024-01-30T03:10:27;33.73;30.92;38.74;;
63692;Laerm;49838;51.798;10.954;2024-01-30T03:12:56;37.50;30.70;54.06;;
63692;Laerm;49838;51.798;10.954;2024-01-30T03:15:23;36.70;30.85;48.29;;
63692;Laerm;49838;51.798;10.954;2024-01-30T03:17:50;36.63;31.38;44.13;;
63692;Laerm;49838;51.798;10.954;2024-01-30T03:20:17;38.45;31.07;62.91;;
63692;Laerm;49838;51.798;10.954;2024-01-30T03:22:45;35.26;30.93;42.14;;
63692;Laerm;49838;51.798;10.954;2024-01-30T03:25:12;34.86;30.21;47.70;;
63692;Laerm;49838;51.798;10.954;2024-01-30T03:27:39;34.15;30.08;39.97;;
63692;Laerm;49838;51.798;10.954;2024-01-30T03:30:09;33.84;31.07;39.08;;
63692;Laerm;49838;51.798;10.954;2024-01-30T03:32:36;36.98;33.16;45.50;;
63692;Laerm;49838;51.798;10.954;2024-01-30T03:35:04;35.89;32.08;43.74;;
63692;Laerm;49838;51.798;10.954;2024-01-30T03:37:32;37.88;32.88;49.35;;
63692;Laerm;49838;51.798;10.954;2024-01-30T03:39:59;36.09;31.26;48.31;;
63692;Laerm;49838;51.798;10.954;2024-01-30T03:42:26;38.83;31.98;62.80;;
63692;Laerm;49838;51.798;10.954;2024-01-30T03:44:53;38.06;32.50;50.68;;
63692;Laerm;49838;51.798;10.954;2024-01-30T03:47:23;33.17;29.19;46.75;;
63692;Laerm;49838;51.798;10.954;2024-01-30T03:49:50;35.37;30.70;41.85;;
63692;Laerm;49838;51.798;10.954;2024-01-30T03:52:18;37.94;32.59;62.12;;
63692;Laerm;49838;51.798;10.954;2024-01-30T03:54:45;37.17;31.25;49.36;;
63692;Laerm;49838;51.798;10.954;2024-01-30T03:57:12;40.19;32.78;56.11;;
63692;Laerm;49838;51.798;10.954;2024-01-30T03:59:41;35.43;31.27;44.30;;
63692;Laerm;49838;51.798;10.954;2024-01-30T04:02:09;35.76;31.34;47.15;;
63692;Laerm;49838;51.798;10.954;2024-01-30T04:04:38;35.20;31.51;42.72;;
63692;Laerm;49838;51.798;10.954;2024-01-30T04:07:05;35.81;32.25;43.56;;
63692;Laerm;49838;51.798;10.954;2024-01-30T04:09:33;51.62;31.63;72.55;;
63692;Laerm;49838;51.798;10.954;2024-01-30T04:12:00;41.46;32.09;70.35;;
63692;Laerm;49838;51.798;10.954;2024-01-30T04:14:28;38.70;34.13;52.31;;
63692;Laerm;49838;51.798;10.954;2024-01-30T04:16:56;44.44;33.28;64.07;;
63692;Laerm;49838;51.798;10.954;2024-01-30T04:19:23;50.37;34.46;68.39;;
63692;Laerm;49838;51.798;10.954;2024-01-30T04:21:51;38.14;32.41;45.13;;
63692;Laerm;49838;51.798;10.954;2024-01-30T04:24:19;37.82;33.89;50.30;;
63692;Laerm;49838;51.798;10.954;2024-01-30T04:26:46;50.27;33.75;70.00;;
63692;Laerm;49838;51.798;10.954;2024-01-30T04:29:13;52.94;33.92;67.85;;
63692;Laerm;49838;51.798;10.954;2024-01-30T04:31:40;54.52;32.42;70.32;;
63692;Laerm;49838;51.798;10.954;2024-01-30T04:34:08;39.17;32.21;56.92;;
63692;Laerm;49838;51.798;10.954;2024-01-30T04:36:35;49.38;33.76;66.59;;
63692;Laerm;49838;51.798;10.954;2024-01-30T04:39:03;37.13;33.15;54.92;;
63692;Laerm;49838;51.798;10.954;2024-01-30T04:41:31;44.68;33.69;59.51;;
63692;Laerm;49838;51.798;10.954;2024-01-30T04:43:58;40.48;33.44;57.04;;
63692;Laerm;49838;51.798;10.954;2024-01-30T04:46:25;37.46;33.72;46.96;;
63692;Laerm;49838;51.798;10.954;2024-01-30T04:48:53;37.98;33.84;45.96;;
63692;Laerm;49838;51.798;10.954;2024-01-30T04:51:20;51.24;34.51;70.20;;
63692;Laerm;49838;51.798;10.954;2024-01-30T04:53:47;51.16;34.97;69.51;;
63692;Laerm;49838;51.798;10.954;2024-01-30T04:56:16;57.35;34.84;75.55;;
63692;Laerm;49838;51.798;10.954;2024-01-30T04:58:43;52.39;34.77;69.17;;
63692;Laerm;49838;51.798;10.954;2024-01-30T05:01:14;42.72;33.90;61.86;;
63692;Laerm;49838;51.798;10.954;2024-01-30T05:03:42;60.26;35.14;77.88;;
63692;Laerm;49838;51.798;10.954;2024-01-30T05:06:09;38.57;34.72;54.30;;
63692;Laerm;49838;51.798;10.954;2024-01-30T05:08:36;39.43;33.77;58.49;;
63692;Laerm;49838;51.798;10.954;2024-01-30T05:11:04;40.04;33.95;62.99;;
63692;Laerm;49838;51.798;10.954;2024-01-30T05:13:33;52.30;33.77;72.56;;
63692;Laerm;49838;51.798;10.954;2024-01-30T05:16:02;41.06;34.47;63.17;;
63692;Laerm;49838;51.798;10.954;2024-01-30T05:18:29;56.14;36.86;70.42;;
63692;Laerm;49838;51.798;10.954;2024-01-30T05:20:56;54.13;36.41;73.96;;
63692;Laerm;49838;51.798;10.954;2024-01-30T05:23:24;57.78;36.20;72.38;;
63692;Laerm;49838;51.798;10.954;2024-01-30T05:25:51;54.86;35.19;70.94;;
63692;Laerm;49838;51.798;10.954;2024-01-30T05:28:19;55.15;36.92;71.65;;
63692;Laerm;49838;51.798;10.954;2024-01-30T05:30:47;57.88;36.64;73.05;;
63692;Laerm;49838;51.798;10.954;2024-01-30T05:33:14;59.56;37.56;78.32;;
63692;Laerm;49838;51.798;10.954;2024-01-30T05:35:42;47.91;37.48;65.43;;
63692;Laerm;49838;51.798;10.954;2024-01-30T05:38:09;53.44;37.78;69.54;;
63692;Laerm;49838;51.798;10.954;2024-01-30T05:40:36;53.42;39.25;68.15;;
63692;Laerm;49838;51.798;10.954;2024-01-30T05:43:04;57.32;39.33;72.24;;
63692;Laerm;49838;51.798;10.954;2024-01-30T05:45:31;49.97;38.10;67.24;;
63692;Laerm;49838;51.798;10.954;2024-01-30T05:47:59;54.11;38.75;70.29;;
63692;Laerm;49838;51.798;10.954;2024-01-30T05:50:27;56.05;39.10;74.22;;
63692;Laerm;49838;51.798;10.954;2024-01-30T05:52:54;58.36;40.01;72.19;;
63692;Laerm;49838;51.798;10.954;2024-01-30T05:55:21;58.65;39.51;73.15;;
63692;Laerm;49838;51.798;10.954;2024-01-30T05:57:48;56.52;39.21;74.98;;
63692;Laerm;49838;51.798;10.954;2024-01-30T06:00:17;58.47;40.11;77.68;;
63692;Laerm;49838;51.798;10.954;2024-01-30T06:02:44;52.79;38.80;71.16;;
63692;Laerm;49838;51.798;10.954;2024-01-30T06:05:13;57.48;39.26;75.70;;
63692;Laerm;49838;51.798;10.954;2024-01-30T06:07:40;57.67;40.49;72.46;;
63692;Laerm;49838;51.798;10.954;2024-01-30T06:10:08;54.61;39.12;71.60;;
63692;Laerm;49838;51.798;10.954;2024-01-30T06:12:36;54.82;39.61;69.63;;
63692;Laerm;49838;51.798;10.954;2024-01-30T06:15:04;54.35;38.05;71.79;;
63692;Laerm;49838;51.798;10.954;2024-01-30T06:17:31;56.58;37.85;73.03;;
63692;Laerm;49838;51.798;10.954;2024-01-30T06:19:58;53.69;39.05;70.08;;
63692;Laerm;49838;51.798;10.954;2024-01-30T06:22:27;64.83;44.01;80.17;;
63692;Laerm;49838;51.798;10.954;2024-01-30T06:24:54;58.97;38.82;73.93;;
63692;Laerm;49838;51.798;10.954;2024-01-30T06:27:23;58.47;39.40;70.58;;
63692;Laerm;49838;51.798;10.954;2024-01-30T06:29:50;57.34;41.30;72.39;;
63692;Laerm;49838;51.798;10.954;2024-01-30T06:32:17;63.02;42.69;75.28;;
63692;Laerm;49838;51.798;10.954;2024-01-30T06:34:44;61.66;40.07;78.32;;
63692;Laerm;49838;51.798;10.954;2024-01-30T06:37:12;61.52;41.14;79.59;;
63692;Laerm;49838;51.798;10.954;2024-01-30T06:39:41;63.05;41.25;77.76;;
63692;Laerm;49838;51.798;10.954;2024-01-30T06:42:08;56.05;40.73;72.16;;
63692;Laerm;49838;51.798;10.954;2024-01-30T06:44:35;57.69;41.27;71.43;;
63692;Laerm;49838;51.798;10.954;2024-01-30T06:47:03;58.66;42.82;73.27;;
63692;Laerm;49838;51.798;10.954;2024-01-30T06:49:30;58.23;40.11;75.96;;
63692;Laerm;49838;51.798;10.954;2024-01-30T06:51:57;60.81;41.33;74.97;;
63692;Laerm;49838;51.798;10.954;2024-01-30T06:54:25;53.77;40.81;70.17;;
63692;Laerm;49838;51.798;10.954;2024-01-30T06:56:53;59.60;42.72;72.62;;
63692;Laerm;49838;51.798;10.954;2024-01-30T06:59:20;59.17;41.26;72.04;;
63692;Laerm;49838;51.798;10.954;2024-01-30T07:01:48;58.69;40.45;74.78;;
63692;Laerm;49838;51.798;10.954;2024-01-30T07:04:15;59.35;39.37;74.52;;
63692;Laerm;49838;51.798;10.954;2024-01-30T07:06:42;59.14;40.35;76.53;;
63692;Laerm;49838;51.798;10.954;2024-01-30T07:09:09;54.44;39.19;69.29;;
63692;Laerm;49838;51.798;10.954;2024-01-30T07:11:37;52.08;40.23;69.36;;
63692;Laerm;49838;51.798;10.954;2024-01-30T07:14:09;57.72;38.64;76.10;;
63692;Laerm;49838;51.798;10.954;2024-01-30T07:16:36;61.41;39.61;81.02;;
63692;Laerm;49838;51.798;10.954;2024-01-30T07:19:03;59.62;40.26;73.50;;
63692;Laerm;49838;51.798;10.954;2024-01-30T07:21:31;56.29;38.89;73.62;;
63692;Laerm;49838;51.798;10.954;2024-01-30T07:23:58;56.63;39.85;72.04;;
63692;Laerm;49838;51.798;10.954;2024-01-30T07:26:25;55.54;40.11;71.00;;
63692;Laerm;49838;51.798;10.954;2024-01-30T07:28:52;57.98;39.02;75.58;;
63692;Laerm;49838;51.798;10.954;2024-01-30T07:31:21;42.44;38.59;50.89;;
63692;Laerm;49838;51.798;10.954;2024-01-30T07:33:49;61.46;42.57;74.88;;
63692;Laerm;49838;51.798;10.954;2024-01-30T07:36:16;59.52;39.96;74.72;;
63692;Laerm;49838;51.798;10.954;2024-01-30T07:38:43;57.52;38.62;74.82;;
63692;Laerm;49838;51.798;10.954;2024-01-30T07:41:11;55.56;39.55;71.01;;
63692;Laerm;49838;51.798;10.954;2024-01-30T07:43:38;61.96;38.65;78.57;;
63692;Laerm;49838;51.798;10.954;2024-01-30T07:46:05;56.24;40.56;74.94;;
63692;Laerm;49838;51.798;10.954;2024-01-30T07:48:34;51.85;39.92;68.86;;
63692;Laerm;49838;51.798;10.954;2024-01-30T07:51:01;59.87;40.03;71.91;;
63692;Laerm;49838;51.798;10.954;2024-01-30T07:53:30;65.21;40.32;81.99;;
63692;Laerm;49838;51.798;10.954;2024-01-30T07:55:57;54.98;39.45;73.24;;
63692;Laerm;49838;51.798;10.954;2024-01-30T07:58:24;58.67;40.34;74.55;;
63692;Laerm;49838;51.798;10.954;2024-01-30T08:00:53;61.11;40.82;75.75;;
63692;Laerm;49838;51.798;10.954;2024-01-30T08:03:22;52.36;41.22;67.39;;
63692;Laerm;49838;51.798;10.954;2024-01-30T08:05:51;58.96;41.71;74.70;;
63692;Laerm;49838;51.798;10.954;2024-01-30T08:08:18;53.16;39.73;71.15;;
63692;Laerm;49838;51.798;10.954;2024-01-30T08:10:46;57.53;40.83;71.65;;
63692;Laerm;49838;51.798;10.954;2024-01-30T08:13:14;57.57;41.18;72.71;;
63692;Laerm;49838;51.798;10.954;2024-01-30T08:15:41;57.95;39.65;71.68;;
63692;Laerm;49838;51.798;10.954;2024-01-30T08:18:08;59.04;40.06;74.12;;
63692;Laerm;49838;51.798;10.954;2024-01-30T08:20:36;60.90;41.39;75.94;;
63692;Laerm;49838;51.798;10.954;2024-01-30T08:23:04;58.10;42.51;72.70;;
63692;Laerm;49838;51.798;10.954;2024-01-30T08:25:32;56.86;42.95;71.18;;
63692;Laerm;49838;51.798;10.954;2024-01-30T08:27:59;54.28;41.97;68.87;;
63692;Laerm;49838;51.798;10.954;2024-01-30T08:30:26;59.67;41.71;74.20;;
63692;Laerm;49838;51.798;10.954;2024-01-30T08:32:53;59.51;42.00;73.97;;
63692;Laerm;49838;51.798;10.954;2024-01-30T08:35:21;62.24;44.22;78.75;;
63692;Laerm;49838;51.798;10.954;2024-01-30T08:37:48;59.15;44.39;73.68;;
63692;Laerm;49838;51.798;10.954;2024-01-30T08:40:16;63.06;44.32;78.41;;
63692;Laerm;49838;51.798;10.954;2024-01-30T08:42:44;60.05;43.45;71.58;;
63692;Laerm;49838;51.798;10.954;2024-01-30T08:45:11;59.65;40.57;75.21;;
63692;Laerm;49838;51.798;10.954;2024-01-30T08:47:40;58.82;41.03;78.25;;
63692;Laerm;49838;51.798;10.954;2024-01-30T08:50:07;60.58;42.09;74.24;;
63692;Laerm;49838;51.798;10.954;2024-01-30T08:52:35;57.16;43.96;69.81;;
63692;Laerm;49838;51.798;10.954;2024-01-30T08:55:02;56.33;41.69;70.53;;
63692;Laerm;49838;51.798;10.954;2024-01-30T08:57:32;58.73;40.51;79.09;;
63692;Laerm;49838;51.798;10.954;2024-01-30T08:59:59;59.81;40.55;71.54;;
63692;Laerm;49838;51.798;10.954;2024-01-30T09:02:28;59.82;41.01;73.30;;
63692;Laerm;49838;51.798;10.954;2024-01-30T09:04:55;56.22;40.35;70.60;;
63692;Laerm;49838;51.798;10.954;2024-01-30T09:07:23;62.91;42.01;83.24;;
63692;Laerm;49838;51.798;10.954;2024-01-30T09:09:50;56.21;40.01;75.41;;
63692;Laerm;49838;51.798;10.954;2024-01-30T09:12:17;58.03;39.82;75.95;;
63692;Laerm;49838;51.798;10.954;2024-01-30T09:14:46;53.60;39.74;72.21;;
63692;Laerm;49838;51.798;10.954;2024-01-30T09:17:13;58.75;41.82;74.59;;
63692;Laerm;49838;51.798;10.954;2024-01-30T09:19:40;59.65;42.02;73.41;;
63692;Laerm;49838;51.798;10.954;2024-01-30T09:22:08;57.90;41.66;73.26;;
63692;Laerm;49838;51.798;10.954;2024-01-30T09:24:35;57.51;41.22;73.65;;
63692;Laerm;49838;51.798;10.954;2024-01-30T09:27:02;51.25;39.26;72.84;;
63692;Laerm;49838;51.798;10.954;2024-01-30T09:29:30;56.96;41.35;70.85;;
63692;Laerm;49838;51.798;10.954;2024-01-30T09:31:59;59.76;40.96;72.45;;
63692;Laerm;49838;51.798;10.954;2024-01-30T09:34:26;61.39;41.12;74.73;;
63692;Laerm;49838;51.798;10.954;2024-01-30T09:36:54;59.21;40.59;72.98;;
63692;Laerm;49838;51.798;10.954;2024-01-30T09:39:21;52.57;40.39;68.51;;
63692;Laerm;49838;51.798;10.954;2024-01-30T09:41:52;56.69;42.29;72.24;;
63692;Laerm;49838;51.798;10.954;2024-01-30T09:44:23;57.14;42.52;72.62;;
63692;Laerm;49838;51.798;10.954;2024-01-30T09:46:52;56.87;42.95;72.54;;
63692;Laerm;49838;51.798;10.954;2024-01-30T09:49:20;60.46;43.75;73.57;;
63692;Laerm;49838;51.798;10.954;2024-01-30T09:51:51;59.87;43.68;74.02;;
63692;Laerm;49838;51.798;10.954;2024-01-30T09:54:19;59.04;41.40;71.96;;
63692;Laerm;49838;51.798;10.954;2024-01-30T09:56:48;65.03;43.39;84.21;;
63692;Laerm;49838;51.798;10.954;2024-01-30T09:59:15;57.27;42.08;72.27;;
63692;Laerm;49838;51.798;10.954;2024-01-30T10:01:43;58.74;42.17;71.14;;
63692;Laerm;49838;51.798;10.954;2024-01-30T10:04:11;59.52;41.60;73.60;;
63692;Laerm;49838;51.798;10.954;2024-01-30T10:06:40;58.85;42.07;75.62;;
63692;Laerm;49838;51.798;10.954;2024-01-30T10:09:07;57.91;40.25;73.85;;
63692;Laerm;49838;51.798;10.954;2024-01-30T10:11:36;64.92;42.24;83.37;;
63692;Laerm;49838;51.798;10.954;2024-01-30T10:14:03;55.07;38.87;70.09;;
63692;Laerm;49838;51.798;10.954;2024-01-30T10:16:30;58.70;39.65;71.09;;
63692;Laerm;49838;51.798;10.954;2024-01-30T10:18:58;57.30;40.21;73.27;;
63692;Laerm;49838;51.798;10.954;2024-01-30T10:21:25;61.77;41.39;78.58;;
63692;Laerm;49838;51.798;10.954;2024-01-30T10:23:54;59.59;43.08;72.88;;
63692;Laerm;49838;51.798;10.954;2024-01-30T10:26:21;63.85;43.40;74.21;;
63692;Laerm;49838;51.798;10.954;2024-01-30T10:28:48;58.80;42.98;73.55;;
63692;Laerm;49838;51.798;10.954;2024-01-30T10:31:16;63.56;41.06;81.94;;
63692;Laerm;49838;51.798;10.954;2024-01-30T10:33:44;60.73;43.09;75.45;;
63692;Laerm;49838;51.798;10.954;2024-01-30T10:36:14;59.76;42.17;77.85;;
63692;Laerm;49838;51.798;10.954;2024-01-30T10:38:42;57.56;43.17;71.29;;
63692;Laerm;49838;51.798;10.954;2024-01-30T10:41:11;59.66;43.72;73.86;;
63692;Laerm;49838;51.798;10.954;2024-01-30T10:43:41;58.95;43.33;73.65;;
63692;Laerm;49838;51.798;10.954;2024-01-30T10:46:11;58.95;43.27;74.41;;
63692;Laerm;49838;51.798;10.954;2024-01-30T10:48:42;53.73;41.79;68.43;;
63692;Laerm;49838;51.798;10.954;2024-01-30T10:51:10;54.18;41.41;70.57;;
63692;Laerm;49838;51.798;10.954;2024-01-30T10:53:38;56.44;41.53;71.65;;
63692;Laerm;49838;51.798;10.954;2024-01-30T10:56:06;61.38;42.31;76.31;;
63692;Laerm;49838;51.798;10.954;2024-01-30T10:58:36;59.43;43.76;76.50;;
63692;Laerm;49838;51.798;10.954;2024-01-30T11:01:05;57.98;44.61;72.06;;
63692;Laerm;49838;51.798;10.954;2024-01-30T11:03:33;60.44;43.83;86.85;;
63692;Laerm;49838;51.798;10.954;2024-01-30T11:06:02;59.64;44.91;73.84;;
63692;Laerm;49838;51.798;10.954;2024-01-30T11:08:32;61.55;43.92;77.32;;
63692;Laerm;49838;51.798;10.954;2024-01-30T11:10:59;63.40;46.65;75.50;;
63692;Laerm;49838;51.798;10.954;2024-01-30T11:13:27;61.69;44.02;77.77;;
63692;Laerm;49838;51.798;10.954;2024-01-30T11:16:00;58.79;43.63;76.86;;
63692;Laerm;49838;51.798;10.954;2024-01-30T11:18:29;56.95;44.16;74.38;;
63692;Laerm;49838;51.798;10.954;2024-01-30T11:20:57;59.50;43.60;77.46;;
63692;Laerm;49838;51.798;10.954;2024-01-30T11:23:26;57.69;43.53;71.00;;
63692;Laerm;49838;51.798;10.954;2024-01-30T11:25:53;63.94;43.58;83.18;;
63692;Laerm;49838;51.798;10.954;2024-01-30T11:28:21;57.18;44.24;73.96;;
63692;Laerm;49838;51.798;10.954;2024-01-30T11:30:49;57.95;44.04;74.19;;
63692;Laerm;49838;51.798;10.954;2024-01-30T11:33:28;58.56;42.88;71.82;;
63692;Laerm;49838;51.798;10.954;2024-01-30T11:35:57;58.35;43.66;73.64;;
63692;Laerm;49838;51.798;10.954;2024-01-30T11:38:25;59.57;44.77;83.94;;
63692;Laerm;49838;51.798;10.954;2024-01-30T11:40:54;57.35;43.19;80.75;;
63692;Laerm;49838;51.798;10.954;2024-01-30T11:43:22;58.40;43.15;73.58;;
63692;Laerm;49838;51.798;10.954;2024-01-30T11:45:50;59.42;43.12;72.13;;
63692;Laerm;49838;51.798;10.954;2024-01-30T11:48:18;59.67;42.13;72.86;;
63692;Laerm;49838;51.798;10.954;2024-01-30T11:50:47;58.97;41.88;73.88;;
63692;Laerm;49838;51.798;10.954;2024-01-30T11:53:14;59.15;43.76;74.24;;
63692;Laerm;49838;51.798;10.954;2024-01-30T11:55:41;47.22;41.75;62.81;;
63692;Laerm;49838;51.798;10.954;2024-01-30T11:58:09;56.90;42.96;80.09;;
63692;Laerm;49838;51.798;10.954;2024-01-30T12:00:36;57.69;43.44;70.97;;
63692;Laerm;49838;51.798;10.954;2024-01-30T12:03:04;60.05;43.27;76.65;;
63692;Laerm;49838;51.798;10.954;2024-01-30T12:05:33;57.64;41.87;74.24;;
63692;Laerm;49838;51.798;10.954;2024-01-30T12:08:01;58.85;42.86;72.85;;
63692;Laerm;49838;51.798;10.954;2024-01-30T12:10:29;60.98;43.94;73.27;;
63692;Laerm;49838;51.798;10.954;2024-01-30T12:12:56;56.66;45.23;70.99;;
63692;Laerm;49838;51.798;10.954;2024-01-30T12:15:24;57.66;43.18;73.83;;
63692;Laerm;49838;51.798;10.954;2024-01-30T12:17:51;56.72;42.50;72.27;;
63692;Laerm;49838;51.798;10.954;2024-01-30T12:20:19;59.01;44.37;74.59;;
63692;Laerm;49838;51.798;10.954;2024-01-30T12:22:48;59.10;42.77;72.60;;
63692;Laerm;49838;51.798;10.954;2024-01-30T12:25:17;58.06;43.65;74.99;;
63692;Laerm;49838;51.798;10.954;2024-01-30T12:27:46;59.30;44.51;76.43;;
63692;Laerm;49838;51.798;10.954;2024-01-30T12:30:17;65.72;46.31;82.87;;
63692;Laerm;49838;51.798;10.954;2024-01-30T12:32:45;62.06;45.01;86.29;;
63692;Laerm;49838;51.798;10.954;2024-01-30T12:35:14;62.54;45.30;80.81;;
63692;Laerm;49838;51.798;10.954;2024-01-30T12:37:43;55.91;43.19;71.39;;
63692;Laerm;49838;51.798;10.954;2024-01-30T12:40:11;59.41;44.52;75.25;;
63692;Laerm;49838;51.798;10.954;2024-01-30T12:42:42;51.56;42.99;71.31;;
63692;Laerm;49838;51.798;10.954;2024-01-30T12:45:13;64.23;42.23;89.81;;
63692;Laerm;49838;51.798;10.954;2024-01-30T12:47:41;59.92;43.65;72.51;;
63692;Laerm;49838;51.798;10.954;2024-01-30T12:50:09;60.10;45.76;80.96;;
63692;Laerm;49838;51.798;10.954;2024-01-30T12:52:38;60.57;43.76;80.05;;
63692;Laerm;49838;51.798;10.954;2024-01-30T12:55:06;58.04;44.66;73.21;;
63692;Laerm;49838;51.798;10.954;2024-01-30T12:57:33;58.65;43.90;74.65;;
63692;Laerm;49838;51.798;10.954;2024-01-30T13:00:02;66.65;43.42;90.20;;
63692;Laerm;49838;51.798;10.954;2024-01-30T13:02:29;59.84;45.46;71.29;;
63692;Laerm;49838;51.798;10.954;2024-01-30T13:05:00;61.96;43.59;74.91;;
63692;Laerm;49838;51.798;10.954;2024-01-30T13:07:28;60.21;42.45;76.22;;
63692;Laerm;49838;51.798;10.954;2024-01-30T13:09:56;61.39;44.11;74.50;;
63692;Laerm;49838;51.798;10.954;2024-01-30T13:12:28;58.01;44.39;77.16;;
63692;Laerm;49838;51.798;10.954;2024-01-30T13:14:55;58.46;41.75;76.62;;
63692;Laerm;49838;51.798;10.954;2024-01-30T13:17:24;54.47;43.40;68.32;;
63692;Laerm;49838;51.798;10.954;2024-01-30T13:19:51;59.91;43.98;72.42;;
63692;Laerm;49838;51.798;10.954;2024-01-30T13:22:20;54.39;42.81;71.13;;
63692;Laerm;49838;51.798;10.954;2024-01-30T13:24:47;59.68;42.91;79.10;;
63692;Laerm;49838;51.798;10.954;2024-01-30T13:27:14;55.94;42.83;70.56;;
63692;Laerm;49838;51.798;10.954;2024-01-30T13:29:42;56.76;42.41;74.04;;
63692;Laerm;49838;51.798;10.954;2024-01-30T13:32:09;60.34;42.32;74.57;;
63692;Laerm;49838;51.798;10.954;2024-01-30T13:34:38;59.28;41.34;74.91;;